Time;durP1;ratioP1;P1;durP2;ratioP2;P2;SDS_P1;SDS_P2;PMS_P1;PMS_P2;Temp;Humidity;BMP_temperature;BMP_pressure;BME280_temperature;BME280_humidity;BME280_pressure;Samples;Min_cycle;Max_cycle;Signal;HPM_P1;HPM_P2
2024/01/28 00:01:41;;;;;;;12.70;4.23;;;;;;;;;;5030598;28;20113;-69
2024/01/28 00:04:08;;;;;;;12.67;4.93;;;;;;;;;;5012938;28;20044;-70
2024/01/28 00:06:34;;;;;;;11.80;4.83;;;;;;;;;;5032533;28;20037;-69
2024/01/28 00:09:00;;;;;;;11.73;4.50;;;;;;;;;;5032956;28;20025;-70
2024/01/28 00:11:25;;;;;;;15.03;4.17;;;;;;;;;;5032618;28;20049;-70
2024/01/28 00:13:51;;;;;;;13.03;3.87;;;;;;;;;;5033002;28;20029;-70
2024/01/28 00:16:18;;;;;;;11.90;4.20;;;;;;;;;;5032859;28;20105;-69
2024/01/28 00:18:43;;;;;;;14.70;4.30;;;;;;;;;;5032674;28;20113;-70
2024/01/28 00:21:09;;;;;;;20.47;5.57;;;;;;;;;;5031445;28;20457;-68
2024/01/28 00:23:37;;;;;;;9.60;3.83;;;;;;;;;;5032346;28;20576;-69
2024/01/28 00:26:02;;;;;;;11.93;4.93;;;;;;;;;;5032510;28;20481;-68
2024/01/28 00:28:29;;;;;;;12.33;4.37;;;;;;;;;;5031282;28;20090;-68
2024/01/28 00:30:55;;;;;;;11.80;5.30;;;;;;;;;;5031121;28;20048;-70
2024/01/28 00:33:20;;;;;;;15.97;5.50;;;;;;;;;;5030766;28;20397;-70
2024/01/28 00:35:46;;;;;;;16.93;5.37;;;;;;;;;;5032319;28;20061;-70
2024/01/28 00:38:12;;;;;;;16.30;5.20;;;;;;;;;;5030858;28;20133;-68
2024/01/28 00:40:38;;;;;;;15.43;4.97;;;;;;;;;;5032338;28;20029;-69
2024/01/28 00:43:04;;;;;;;19.20;5.23;;;;;;;;;;5032268;28;20106;-69
2024/01/28 00:45:30;;;;;;;14.00;4.43;;;;;;;;;;5032225;28;20057;-69
2024/01/28 00:47:56;;;;;;;16.67;5.43;;;;;;;;;;5031122;28;20418;-68
2024/01/28 00:50:22;;;;;;;17.17;5.67;;;;;;;;;;5031964;28;20031;-68
2024/01/28 00:52:48;;;;;;;11.13;4.57;;;;;;;;;;5032158;28;20569;-69
2024/01/28 00:55:14;;;;;;;15.37;6.17;;;;;;;;;;5030726;28;20044;-69
2024/01/28 00:57:41;;;;;;;12.47;4.93;;;;;;;;;;5014284;28;20033;-69
2024/01/28 01:00:07;;;;;;;12.87;5.87;;;;;;;;;;5030608;28;20385;-69
2024/01/28 01:02:33;;;;;;;14.60;4.73;;;;;;;;;;5031447;28;20026;-69
2024/01/28 01:05:00;;;;;;;11.70;5.20;;;;;;;;;;5031086;28;20492;-69
2024/01/28 01:07:26;;;;;;;16.47;4.60;;;;;;;;;;5030474;28;20036;-71
2024/01/28 01:09:52;;;;;;;15.70;5.33;;;;;;;;;;5030443;28;20025;-69
2024/01/28 01:12:17;;;;;;;14.37;4.83;;;;;;;;;;5030116;28;20490;-69
2024/01/28 01:14:43;;;;;;;16.10;5.83;;;;;;;;;;5031854;28;20033;-68
2024/01/28 01:17:08;;;;;;;14.80;6.20;;;;;;;;;;5030266;28;20072;-69
2024/01/28 01:19:34;;;;;;;19.97;5.67;;;;;;;;;;5030237;28;20496;-69
2024/01/28 01:22:02;;;;;;;15.93;6.30;;;;;;;;;;5030312;28;20120;-70
2024/01/28 01:24:28;;;;;;;15.67;6.37;;;;;;;;;;5031703;28;20104;-68
2024/01/28 01:26:53;;;;;;;10.97;5.20;;;;;;;;;;5013990;28;20053;-70
2024/01/28 01:29:19;;;;;;;14.63;6.20;;;;;;;;;;5031375;28;20101;-70
2024/01/28 01:31:45;;;;;;;12.63;6.23;;;;;;;;;;5029984;28;20056;-71
2024/01/28 01:34:11;;;;;;;11.97;5.23;;;;;;;;;;5030267;28;20025;-68
2024/01/28 01:36:36;;;;;;;13.87;5.27;;;;;;;;;;5030104;28;20033;-68
2024/01/28 01:39:02;;;;;;;14.83;6.27;;;;;;;;;;5030040;28;20033;-70
2024/01/28 01:41:28;;;;;;;15.43;6.67;;;;;;;;;;5029947;28;20025;-70
2024/01/28 01:43:55;;;;;;;14.50;5.90;;;;;;;;;;5031725;28;20019;-70
2024/01/28 01:46:22;;;;;;;14.40;5.83;;;;;;;;;;5030099;28;20029;-69
2024/01/28 01:48:49;;;;;;;13.03;6.70;;;;;;;;;;5030046;28;20381;-69
2024/01/28 01:51:15;;;;;;;15.97;6.87;;;;;;;;;;5031024;28;20040;-69
2024/01/28 01:53:41;;;;;;;15.40;5.97;;;;;;;;;;5030599;28;20493;-69
2024/01/28 01:56:07;;;;;;;20.57;6.40;;;;;;;;;;5030818;28;20025;-69
2024/01/28 01:58:33;;;;;;;14.23;6.40;;;;;;;;;;5030251;28;20029;-68
2024/01/28 02:01:00;;;;;;;14.73;6.47;;;;;;;;;;5031373;28;20298;-69
2024/01/28 02:03:29;;;;;;;18.37;5.90;;;;;;;;;;5035601;28;20064;-68
2024/01/28 02:05:55;;;;;;;15.90;6.53;;;;;;;;;;5033719;28;20041;-68
2024/01/28 02:08:20;;;;;;;13.40;5.93;;;;;;;;;;5038388;28;20083;-69
2024/01/28 02:10:46;;;;;;;13.43;5.60;;;;;;;;;;5037551;28;20045;-69
2024/01/28 02:13:12;;;;;;;16.03;6.50;;;;;;;;;;5033213;28;20033;-70
2024/01/28 02:15:38;;;;;;;15.77;6.07;;;;;;;;;;5030032;28;20029;-70
2024/01/28 02:18:05;;;;;;;22.53;7.07;;;;;;;;;;5029839;28;20215;-69
2024/01/28 02:20:31;;;;;;;15.37;6.17;;;;;;;;;;5029186;28;20040;-69
2024/01/28 02:22:57;;;;;;;14.00;6.30;;;;;;;;;;5030825;28;20033;-69
2024/01/28 02:25:23;;;;;;;14.90;6.20;;;;;;;;;;5030711;28;20033;-69
2024/01/28 02:27:48;;;;;;;14.77;7.27;;;;;;;;;;5030431;28;20079;-70
2024/01/28 02:30:15;;;;;;;23.17;7.93;;;;;;;;;;5030806;28;20034;-70
2024/01/28 02:32:51;;;;;;;16.47;6.07;;;;;;;;;;5029621;28;20041;-69
2024/01/28 02:35:18;;;;;;;16.07;5.90;;;;;;;;;;5028818;28;20396;-70
2024/01/28 02:37:44;;;;;;;20.20;6.63;;;;;;;;;;5030635;28;20044;-69
2024/01/28 02:40:10;;;;;;;16.10;6.00;;;;;;;;;;5012291;28;20033;-68
2024/01/28 02:42:36;;;;;;;15.10;6.03;;;;;;;;;;5030561;28;20036;-71
2024/01/28 02:45:02;;;;;;;18.53;6.70;;;;;;;;;;5029112;28;20025;-69
2024/01/28 02:47:28;;;;;;;12.67;6.43;;;;;;;;;;5028801;28;20392;-68
2024/01/28 02:49:53;;;;;;;16.10;7.37;;;;;;;;;;5030378;28;20025;-68
2024/01/28 02:52:19;;;;;;;17.37;7.47;;;;;;;;;;5028628;28;20056;-68
2024/01/28 02:54:45;;;;;;;15.83;6.63;;;;;;;;;;5030247;28;20033;-69
2024/01/28 02:57:11;;;;;;;21.37;8.33;;;;;;;;;;5028572;28;20531;-69
2024/01/28 02:59:37;;;;;;;16.93;7.03;;;;;;;;;;5028530;28;20029;-70
2024/01/28 03:02:03;;;;;;;17.23;6.80;;;;;;;;;;5030084;28;20048;-69
2024/01/28 03:04:29;;;;;;;19.90;8.20;;;;;;;;;;5030404;28;20440;-73
2024/01/28 03:06:54;;;;;;;22.03;7.23;;;;;;;;;;5034115;28;20039;-76
2024/01/28 03:09:20;;;;;;;19.53;6.83;;;;;;;;;;5032217;28;20060;-73
2024/01/28 03:11:45;;;;;;;23.03;7.50;;;;;;;;;;5032281;28;20145;-73
2024/01/28 03:14:11;;;;;;;55.47;24.23;;;;;;;;;;5032602;28;20037;-73
2024/01/28 03:16:37;;;;;;;20.83;8.23;;;;;;;;;;5033980;28;20440;-73
2024/01/28 03:19:02;;;;;;;17.07;7.53;;;;;;;;;;5034025;28;20029;-75
2024/01/28 03:21:29;;;;;;;17.43;7.63;;;;;;;;;;5031979;28;20402;-74
2024/01/28 03:23:54;;;;;;;18.60;6.40;;;;;;;;;;5015731;28;20481;-73
2024/01/28 03:26:20;;;;;;;22.57;8.23;;;;;;;;;;5031497;28;20036;-74
2024/01/28 03:28:46;;;;;;;19.73;7.57;;;;;;;;;;5033779;28;20108;-73
2024/01/28 03:31:12;;;;;;;19.47;7.50;;;;;;;;;;5032888;28;20025;-75
2024/01/28 03:33:37;;;;;;;18.30;7.97;;;;;;;;;;5031389;28;20030;-74
2024/01/28 03:36:03;;;;;;;20.70;8.17;;;;;;;;;;5033371;28;20096;-74
2024/01/28 03:38:29;;;;;;;29.50;8.73;;;;;;;;;;5033798;28;20552;-74
2024/01/28 03:40:54;;;;;;;24.87;7.83;;;;;;;;;;5036382;28;20060;-74
2024/01/28 03:43:20;;;;;;;18.80;7.13;;;;;;;;;;5036435;28;20033;-74
2024/01/28 03:45:45;;;;;;;29.80;9.07;;;;;;;;;;5037203;28;20140;-72
2024/01/28 03:48:11;;;;;;;22.27;9.73;;;;;;;;;;5037615;28;20028;-73
2024/01/28 03:50:37;;;;;;;18.43;9.97;;;;;;;;;;5035521;28;20033;-71
2024/01/28 03:53:02;;;;;;;26.47;9.67;;;;;;;;;;5036660;28;20049;-74
2024/01/28 03:55:28;;;;;;;17.27;9.13;;;;;;;;;;5036738;28;20028;-75
2024/01/28 03:57:54;;;;;;;28.63;9.33;;;;;;;;;;5037687;28;20025;-72
2024/01/28 04:00:19;;;;;;;22.47;10.03;;;;;;;;;;5038415;28;20029;-72
2024/01/28 04:02:45;;;;;;;24.67;9.67;;;;;;;;;;5039583;28;20027;-74
2024/01/28 04:05:10;;;;;;;24.43;9.07;;;;;;;;;;5039217;28;20048;-72
2024/01/28 04:07:36;;;;;;;18.63;7.90;;;;;;;;;;5037889;28;20026;-75
2024/01/28 04:10:02;;;;;;;19.13;9.17;;;;;;;;;;5037597;28;20537;-74
2024/01/28 04:12:28;;;;;;;24.43;9.70;;;;;;;;;;5039024;28;20374;-75
2024/01/28 04:14:54;;;;;;;30.70;8.17;;;;;;;;;;5037566;28;20041;-75
2024/01/28 04:17:21;;;;;;;15.77;7.17;;;;;;;;;;5039365;28;20481;-74
2024/01/28 04:19:46;;;;;;;27.50;8.87;;;;;;;;;;5037077;28;20026;-75
2024/01/28 04:22:12;;;;;;;22.17;7.97;;;;;;;;;;5038249;28;20018;-68
2024/01/28 04:24:38;;;;;;;23.17;8.67;;;;;;;;;;5036764;28;20404;-73
2024/01/28 04:27:03;;;;;;;17.97;6.77;;;;;;;;;;5036366;28;20017;-73
2024/01/28 04:29:29;;;;;;;20.13;7.27;;;;;;;;;;5036218;28;20025;-74
2024/01/28 04:31:55;;;;;;;25.27;7.07;;;;;;;;;;5037437;28;20081;-74
2024/01/28 04:34:22;;;;;;;18.97;7.30;;;;;;;;;;5035032;28;20521;-74
2024/01/28 04:36:48;;;;;;;22.73;8.63;;;;;;;;;;5037325;28;20559;-72
2024/01/28 04:39:14;;;;;;;20.23;6.67;;;;;;;;;;5036932;28;20038;-72
2024/01/28 04:41:39;;;;;;;18.20;7.93;;;;;;;;;;5036920;28;20021;-74
2024/01/28 04:44:05;;;;;;;19.43;7.70;;;;;;;;;;5037472;28;20018;-73
2024/01/28 04:46:31;;;;;;;19.80;6.80;;;;;;;;;;5035517;28;20374;-76
2024/01/28 04:48:57;;;;;;;19.57;7.10;;;;;;;;;;5036915;28;20096;-73
2024/01/28 04:51:23;;;;;;;21.00;7.33;;;;;;;;;;5034800;28;20052;-73
2024/01/28 04:53:48;;;;;;;20.03;8.50;;;;;;;;;;5035056;28;20653;-72
2024/01/28 04:56:14;;;;;;;22.27;9.13;;;;;;;;;;5035689;28;20037;-69
2024/01/28 04:58:40;;;;;;;15.37;8.03;;;;;;;;;;5035545;28;20045;-73
2024/01/28 05:01:05;;;;;;;20.70;7.77;;;;;;;;;;5036411;28;20332;-74
2024/01/28 05:03:31;;;;;;;19.40;8.50;;;;;;;;;;5037585;28;20021;-74
2024/01/28 05:05:59;;;;;;;14.83;7.87;;;;;;;;;;5036395;28;20036;-74
2024/01/28 05:08:25;;;;;;;20.33;8.40;;;;;;;;;;5035806;28;20030;-73
2024/01/28 05:10:51;;;;;;;26.27;9.23;;;;;;;;;;5035431;28;20077;-74
2024/01/28 05:13:17;;;;;;;17.27;8.13;;;;;;;;;;5037938;28;20026;-74
2024/01/28 05:15:43;;;;;;;17.53;8.90;;;;;;;;;;5036722;28;20060;-73
2024/01/28 05:18:10;;;;;;;27.10;8.13;;;;;;;;;;5036261;28;20116;-72
2024/01/28 05:20:35;;;;;;;16.10;7.93;;;;;;;;;;5035903;28;20025;-74
2024/01/28 05:23:01;;;;;;;24.33;8.07;;;;;;;;;;5036726;28;20033;-74
2024/01/28 05:25:28;;;;;;;13.87;7.03;;;;;;;;;;5038252;28;20021;-73
2024/01/28 05:27:54;;;;;;;20.07;8.13;;;;;;;;;;5037546;28;20036;-73
2024/01/28 05:30:20;;;;;;;24.13;8.13;;;;;;;;;;5040957;28;20055;-75
2024/01/28 05:32:45;;;;;;;20.67;8.03;;;;;;;;;;5040226;28;20116;-73
2024/01/28 05:35:11;;;;;;;23.20;8.27;;;;;;;;;;5039873;28;20018;-74
2024/01/28 05:37:37;;;;;;;22.83;8.73;;;;;;;;;;5041730;28;20025;-73
2024/01/28 05:40:04;;;;;;;21.03;7.90;;;;;;;;;;5040184;28;20017;-74
2024/01/28 05:42:30;;;;;;;15.77;8.00;;;;;;;;;;5035694;28;20474;-72
2024/01/28 05:44:56;;;;;;;22.27;8.07;;;;;;;;;;5038051;28;20022;-74
2024/01/28 05:47:21;;;;;;;17.43;8.80;;;;;;;;;;5035055;28;20029;-73
2024/01/28 05:49:47;;;;;;;20.63;8.70;;;;;;;;;;5036640;28;20037;-72
2024/01/28 05:52:12;;;;;;;24.03;8.77;;;;;;;;;;5036627;28;20093;-74
2024/01/28 05:54:41;;;;;;;20.93;8.73;;;;;;;;;;5037352;28;20402;-73
2024/01/28 05:57:08;;;;;;;18.73;7.30;;;;;;;;;;5035848;28;20021;-75
2024/01/28 05:59:34;;;;;;;20.30;7.73;;;;;;;;;;5037529;28;20036;-73
2024/01/28 06:01:59;;;;;;;18.60;7.70;;;;;;;;;;5038692;28;20025;-73
2024/01/28 06:04:25;;;;;;;16.30;7.37;;;;;;;;;;5040014;28;20021;-73
2024/01/28 06:06:50;;;;;;;19.10;7.97;;;;;;;;;;5039250;28;20028;-71
2024/01/28 06:09:16;;;;;;;19.93;7.03;;;;;;;;;;5037809;28;20090;-73
2024/01/28 06:11:43;;;;;;;16.83;7.20;;;;;;;;;;5037875;28;20048;-72
2024/01/28 06:14:10;;;;;;;15.27;6.50;;;;;;;;;;5036363;28;20030;-72
2024/01/28 06:16:35;;;;;;;18.63;8.53;;;;;;;;;;5039528;28;20017;-75
2024/01/28 06:19:01;;;;;;;14.90;7.40;;;;;;;;;;5039681;28;20033;-71
2024/01/28 06:21:27;;;;;;;22.20;7.97;;;;;;;;;;5036437;28;20060;-75
2024/01/28 06:23:52;;;;;;;15.37;6.90;;;;;;;;;;5035905;28;20017;-74
2024/01/28 06:26:18;;;;;;;14.10;7.30;;;;;;;;;;5037773;28;20022;-76
2024/01/28 06:28:47;;;;;;;18.07;7.67;;;;;;;;;;5037632;28;20025;-74
2024/01/28 06:31:14;;;;;;;17.90;7.70;;;;;;;;;;5037113;28;20097;-75
2024/01/28 06:33:40;;;;;;;22.40;8.67;;;;;;;;;;5035981;28;20064;-74
2024/01/28 06:36:06;;;;;;;26.53;7.60;;;;;;;;;;5036168;28;20029;-75
2024/01/28 06:38:32;;;;;;;19.23;8.47;;;;;;;;;;5037046;28;20013;-74
2024/01/28 06:40:58;;;;;;;20.07;7.97;;;;;;;;;;5036520;28;20360;-72
2024/01/28 06:43:25;;;;;;;22.97;7.90;;;;;;;;;;5034537;28;20067;-76
2024/01/28 06:45:54;;;;;;;32.37;8.13;;;;;;;;;;5036306;28;20013;-73
2024/01/28 06:48:21;;;;;;;18.43;7.33;;;;;;;;;;5035279;28;20438;-70
2024/01/28 06:50:47;;;;;;;31.70;9.23;;;;;;;;;;5034731;28;20497;-74
2024/01/28 06:53:12;;;;;;;28.23;9.17;;;;;;;;;;5035026;28;20048;-73
2024/01/28 06:55:38;;;;;;;17.10;7.40;;;;;;;;;;5035768;28;20493;-73
2024/01/28 06:58:04;;;;;;;24.30;10.80;;;;;;;;;;5035369;28;20044;-73
2024/01/28 07:00:30;;;;;;;15.30;7.43;;;;;;;;;;5035955;28;20555;-74
2024/01/28 07:02:55;;;;;;;20.43;7.83;;;;;;;;;;5031366;28;20377;-73
2024/01/28 07:05:22;;;;;;;26.10;8.27;;;;;;;;;;5032820;28;20091;-70
2024/01/28 07:07:48;;;;;;;24.37;8.70;;;;;;;;;;5030840;28;20029;-73
2024/01/28 07:10:14;;;;;;;22.07;8.07;;;;;;;;;;5032366;28;20033;-74
2024/01/28 07:12:40;;;;;;;16.80;7.27;;;;;;;;;;5031858;28;20075;-73
2024/01/28 07:15:06;;;;;;;22.70;8.20;;;;;;;;;;5034699;28;20489;-74
2024/01/28 07:17:32;;;;;;;22.73;8.53;;;;;;;;;;5034647;28;20032;-73
2024/01/28 07:19:58;;;;;;;18.93;8.03;;;;;;;;;;5035644;28;20033;-74
2024/01/28 07:22:24;;;;;;;20.63;7.33;;;;;;;;;;5036244;28;20029;-75
2024/01/28 07:24:51;;;;;;;18.00;8.70;;;;;;;;;;5036501;28;20380;-71
2024/01/28 07:27:17;;;;;;;21.37;8.47;;;;;;;;;;5018671;28;20499;-72
2024/01/28 07:29:43;;;;;;;12.57;6.23;;;;;;;;;;5034699;28;20030;-72
2024/01/28 07:32:13;;;;;;;17.10;7.60;;;;;;;;;;5036493;28;20474;-73
2024/01/28 07:34:40;;;;;;;16.57;6.77;;;;;;;;;;5035201;28;20781;-75
2024/01/28 07:37:06;;;;;;;15.40;7.40;;;;;;;;;;5036007;28;20026;-73
2024/01/28 07:39:31;;;;;;;17.87;7.13;;;;;;;;;;5034372;28;20057;-74
2024/01/28 07:41:58;;;;;;;21.37;6.87;;;;;;;;;;5034803;28;20476;-74
2024/01/28 07:44:25;;;;;;;25.60;7.70;;;;;;;;;;5035757;28;20022;-75
2024/01/28 07:46:54;;;;;;;19.90;7.07;;;;;;;;;;5034169;28;20144;-75
2024/01/28 07:49:20;;;;;;;18.00;7.30;;;;;;;;;;5034449;28;20036;-75
2024/01/28 07:51:47;;;;;;;16.47;7.27;;;;;;;;;;5034177;28;20047;-75
2024/01/28 07:54:12;;;;;;;22.20;7.30;;;;;;;;;;5033991;28;20134;-75
2024/01/28 07:56:38;;;;;;;23.40;7.20;;;;;;;;;;5035742;28;20509;-76
2024/01/28 07:59:04;;;;;;;15.10;5.70;;;;;;;;;;5035514;28;20424;-73
2024/01/28 08:01:30;;;;;;;15.37;7.53;;;;;;;;;;5035675;28;20497;-74
2024/01/28 08:03:57;;;;;;;17.07;6.97;;;;;;;;;;5034842;28;20706;-75
2024/01/28 08:06:23;;;;;;;19.00;7.33;;;;;;;;;;5035772;28;20124;-71
2024/01/28 08:08:49;;;;;;;15.37;7.50;;;;;;;;;;5017853;28;20033;-75
2024/01/28 08:11:14;;;;;;;14.40;6.23;;;;;;;;;;5033795;28;20540;-74
2024/01/28 08:13:43;;;;;;;13.07;6.20;;;;;;;;;;5034280;28;20116;-75
2024/01/28 08:16:09;;;;;;;18.70;6.83;;;;;;;;;;5017712;28;20026;-77
2024/01/28 08:18:34;;;;;;;14.73;6.53;;;;;;;;;;5034633;28;20087;-73
2024/01/28 08:21:00;;;;;;;16.57;6.50;;;;;;;;;;5034307;28;20480;-75
2024/01/28 08:23:26;;;;;;;17.73;6.27;;;;;;;;;;5034916;28;20018;-69
2024/01/28 08:25:54;;;;;;;18.63;7.07;;;;;;;;;;5034933;28;20032;-74
2024/01/28 08:28:21;;;;;;;18.07;6.47;;;;;;;;;;5034365;28;20465;-74
2024/01/28 08:30:50;;;;;;;14.37;7.07;;;;;;;;;;5034182;28;20041;-75
2024/01/28 08:33:16;;;;;;;13.30;6.80;;;;;;;;;;5033393;28;20029;-73
2024/01/28 08:35:43;;;;;;;15.10;6.37;;;;;;;;;;5033828;28;20032;-74
2024/01/28 08:38:10;;;;;;;18.93;8.60;;;;;;;;;;5033698;28;20461;-75
2024/01/28 08:40:36;;;;;;;13.00;5.83;;;;;;;;;;5033520;28;20035;-72
2024/01/28 08:43:04;;;;;;;17.33;6.37;;;;;;;;;;5035694;28;20092;-73
2024/01/28 08:45:29;;;;;;;23.57;8.37;;;;;;;;;;5019148;28;20060;-75
2024/01/28 08:47:55;;;;;;;19.93;6.77;;;;;;;;;;5036535;28;20033;-73
2024/01/28 08:50:21;;;;;;;17.90;6.10;;;;;;;;;;5034709;28;20461;-75
2024/01/28 08:52:47;;;;;;;26.93;6.87;;;;;;;;;;5035433;28;20033;-73
2024/01/28 08:55:12;;;;;;;18.50;7.20;;;;;;;;;;5035165;28;20035;-75
2024/01/28 08:57:39;;;;;;;13.37;6.37;;;;;;;;;;5034090;28;20111;-75
2024/01/28 09:00:06;;;;;;;13.00;6.40;;;;;;;;;;5035619;28;20040;-73
2024/01/28 09:02:35;;;;;;;15.33;7.20;;;;;;;;;;5036373;28;20365;-75
2024/01/28 09:05:01;;;;;;;14.70;6.10;;;;;;;;;;5034882;28;20026;-75
2024/01/28 09:07:28;;;;;;;17.37;6.90;;;;;;;;;;5037113;28;20032;-72
2024/01/28 09:09:55;;;;;;;19.60;6.50;;;;;;;;;;5035772;28;20032;-74
2024/01/28 09:12:21;;;;;;;15.63;6.70;;;;;;;;;;5035936;28;20042;-78
2024/01/28 09:14:47;;;;;;;24.67;9.50;;;;;;;;;;5035385;28;20331;-74
2024/01/28 09:17:12;;;;;;;20.13;6.87;;;;;;;;;;5035489;28;20052;-74
2024/01/28 09:19:40;;;;;;;20.23;6.73;;;;;;;;;;5034028;28;20025;-74
2024/01/28 09:22:06;;;;;;;24.07;7.33;;;;;;;;;;5036573;28;20040;-73
2024/01/28 09:24:32;;;;;;;13.50;6.07;;;;;;;;;;5033401;28;20032;-74
2024/01/28 09:26:58;;;;;;;16.33;7.97;;;;;;;;;;5034537;28;20025;-75
2024/01/28 09:29:27;;;;;;;18.10;6.33;;;;;;;;;;5032863;28;20026;-74
2024/01/28 09:31:53;;;;;;;16.70;7.90;;;;;;;;;;5032515;28;20029;-75
2024/01/28 09:34:19;;;;;;;19.63;8.07;;;;;;;;;;5034233;28;20022;-75
2024/01/28 09:36:45;;;;;;;22.27;9.13;;;;;;;;;;5032467;28;20040;-75
2024/01/28 09:39:11;;;;;;;21.60;8.20;;;;;;;;;;5032598;28;20025;-73
2024/01/28 09:41:45;;;;;;;16.00;7.53;;;;;;;;;;5032415;28;20025;-75
2024/01/28 09:44:11;;;;;;;20.93;6.83;;;;;;;;;;5032322;28;20028;-75
2024/01/28 09:46:37;;;;;;;20.97;10.00;;;;;;;;;;5032983;28;20025;-76
2024/01/28 09:49:04;;;;;;;21.40;7.97;;;;;;;;;;5035479;28;20085;-75
2024/01/28 09:51:30;;;;;;;22.90;7.83;;;;;;;;;;5035435;28;20033;-74
2024/01/28 09:53:56;;;;;;;14.90;6.93;;;;;;;;;;5034468;28;20022;-76
2024/01/28 09:56:22;;;;;;;23.13;7.90;;;;;;;;;;5030416;28;20033;-74
2024/01/28 09:58:48;;;;;;;28.93;7.90;;;;;;;;;;5029716;28;20025;-75
2024/01/28 10:01:14;;;;;;;17.73;7.97;;;;;;;;;;5028965;28;20080;-75
2024/01/28 10:03:41;;;;;;;18.40;7.80;;;;;;;;;;5030578;28;20022;-74
2024/01/28 10:06:07;;;;;;;17.63;7.03;;;;;;;;;;5030756;28;20484;-75
2024/01/28 10:08:32;;;;;;;22.23;7.63;;;;;;;;;;5030214;28;20033;-75
2024/01/28 10:11:00;;;;;;;16.03;7.27;;;;;;;;;;5028779;28;20045;-75
2024/01/28 10:13:29;;;;;;;18.93;8.50;;;;;;;;;;5030221;28;20075;-76
2024/01/28 10:15:56;;;;;;;15.93;7.10;;;;;;;;;;5030000;28;20106;-72
2024/01/28 10:18:26;;;;;;;17.77;7.63;;;;;;;;;;5029199;28;20104;-74
2024/01/28 10:20:51;;;;;;;22.17;7.70;;;;;;;;;;5030268;28;20309;-73
2024/01/28 10:23:17;;;;;;;16.73;7.00;;;;;;;;;;5031766;28;20044;-75
2024/01/28 10:25:44;;;;;;;22.53;8.50;;;;;;;;;;5031427;28;20096;-74
2024/01/28 10:28:10;;;;;;;20.63;8.40;;;;;;;;;;5040072;28;20025;-72
2024/01/28 10:30:35;;;;;;;19.40;8.27;;;;;;;;;;5041466;28;20071;-71
2024/01/28 10:33:01;;;;;;;18.50;8.27;;;;;;;;;;5030864;28;20028;-74
2024/01/28 10:35:26;;;;;;;19.07;6.83;;;;;;;;;;5028795;28;20481;-75
2024/01/28 10:37:55;;;;;;;13.03;5.83;;;;;;;;;;5028469;28;20033;-74
2024/01/28 10:40:23;;;;;;;19.60;6.40;;;;;;;;;;5028565;28;20470;-74
2024/01/28 10:42:55;;;;;;;26.93;7.40;;;;;;;;;;5028131;28;20053;-74
2024/01/28 10:45:23;;;;;;;16.57;6.47;;;;;;;;;;5030273;28;20043;-74
2024/01/28 10:47:54;;;;;;;21.80;8.40;;;;;;;;;;5029430;28;20445;-73
2024/01/28 10:50:24;;;;;;;17.38;7.32;;;;;;;;;;5029786;28;20437;-74
2024/01/28 10:52:51;;;;;;;12.40;5.93;;;;;;;;;;5028057;28;20025;-73
2024/01/28 10:55:20;;;;;;;16.50;5.97;;;;;;;;;;5029251;28;20100;-73
2024/01/28 10:57:47;;;;;;;15.77;6.90;;;;;;;;;;5028232;28;20021;-74
2024/01/28 11:00:16;;;;;;;17.10;7.10;;;;;;;;;;5028239;28;20147;-73
2024/01/28 11:02:42;;;;;;;13.37;6.13;;;;;;;;;;5031036;28;20134;-75
2024/01/28 11:05:10;;;;;;;18.70;7.30;;;;;;;;;;5029949;28;20025;-77
2024/01/28 11:07:36;;;;;;;21.87;7.03;;;;;;;;;;5011283;28;20033;-72
2024/01/28 11:10:05;;;;;;;19.63;8.50;;;;;;;;;;5029010;28;20018;-75
2024/01/28 11:12:30;;;;;;;15.30;6.50;;;;;;;;;;5028192;28;20116;-74
2024/01/28 11:15:00;;;;;;;14.33;5.43;;;;;;;;;;5027766;28;20156;-75
2024/01/28 11:17:33;;;;;;;18.87;5.87;;;;;;;;;;5028245;28;20033;-74
2024/01/28 11:20:09;;;;;;;7.90;3.30;;;;;;;;;;5027588;28;20397;-75
2024/01/28 11:22:53;;;;;;;13.33;4.20;;;;;;;;;;5028404;28;20044;-74
2024/01/28 11:25:24;;;;;;;7.20;2.97;;;;;;;;;;5029309;28;20071;-72
2024/01/28 11:27:51;;;;;;;9.70;4.00;;;;;;;;;;5027557;28;20124;-75
2024/01/28 11:30:21;;;;;;;15.23;4.30;;;;;;;;;;5029513;28;20057;-77
2024/01/28 11:32:47;;;;;;;16.87;4.70;;;;;;;;;;5029064;28;20041;-76
2024/01/28 11:35:13;;;;;;;14.97;4.53;;;;;;;;;;5027776;28;20379;-74
2024/01/28 11:37:55;;;;;;;11.20;4.00;;;;;;;;;;5027962;28;20038;-74
2024/01/28 11:40:30;;;;;;;9.63;4.20;;;;;;;;;;5013095;28;20100;-76
2024/01/28 11:42:55;;;;;;;9.17;4.93;;;;;;;;;;5008393;28;20398;-74
2024/01/28 11:45:22;;;;;;;18.87;5.20;;;;;;;;;;5008363;28;20040;-75
2024/01/28 11:47:49;;;;;;;14.07;4.70;;;;;;;;;;5008050;28;20455;-75
2024/01/28 11:50:16;;;;;;;12.07;4.87;;;;;;;;;;5008277;28;20041;-75
2024/01/28 11:52:42;;;;;;;15.70;6.93;;;;;;;;;;5007725;28;20509;-73
2024/01/28 11:55:13;;;;;;;17.37;4.70;;;;;;;;;;5008564;28;20044;-73
2024/01/28 11:57:40;;;;;;;10.90;4.80;;;;;;;;;;5009735;28;20513;-70
2024/01/28 12:00:11;;;;;;;16.80;5.13;;;;;;;;;;5008607;28;20049;-75
2024/01/28 12:02:37;;;;;;;14.83;4.87;;;;;;;;;;5028848;28;20045;-73
2024/01/28 12:05:05;;;;;;;13.33;5.10;;;;;;;;;;5012610;28;20041;-73
2024/01/28 12:07:31;;;;;;;15.63;5.00;;;;;;;;;;5013252;28;20045;-75
2024/01/28 12:09:59;;;;;;;19.07;5.30;;;;;;;;;;5011872;28;20034;-74
2024/01/28 12:12:24;;;;;;;16.47;4.77;;;;;;;;;;4992992;28;20474;-74
2024/01/28 12:14:50;;;;;;;15.07;5.50;;;;;;;;;;5008996;28;20085;-73
2024/01/28 12:17:16;;;;;;;18.17;5.27;;;;;;;;;;4993410;28;20026;-73
2024/01/28 12:19:41;;;;;;;11.17;4.60;;;;;;;;;;4993501;28;20037;-76
2024/01/28 12:22:11;;;;;;;10.93;4.27;;;;;;;;;;4992190;28;20419;-75
2024/01/28 12:24:43;;;;;;;11.40;4.40;;;;;;;;;;4993736;28;20026;-74
2024/01/28 12:27:09;;;;;;;11.93;4.70;;;;;;;;;;5008419;28;20096;-74
2024/01/28 12:29:35;;;;;;;14.55;5.63;;;;;;;;;;5008964;28;20034;-73
2024/01/28 12:32:00;;;;;;;9.35;3.67;;;;;;;;;;4993454;28;20060;-73
2024/01/28 12:34:26;;;;;;;7.43;3.50;;;;;;;;;;4992989;28;20022;-74
2024/01/28 12:36:52;;;;;;;11.57;4.00;;;;;;;;;;4991188;28;20144;-74
2024/01/28 12:39:18;;;;;;;13.68;4.10;;;;;;;;;;4992060;28;20042;-74
2024/01/28 12:41:43;;;;;;;8.10;3.67;;;;;;;;;;5011147;28;20097;-74
2024/01/28 12:44:09;;;;;;;11.20;4.10;;;;;;;;;;5011661;28;20021;-76
2024/01/28 12:46:34;;;;;;;14.40;4.50;;;;;;;;;;5010985;28;20034;-74
2024/01/28 12:49:01;;;;;;;10.93;5.68;;;;;;;;;;5012293;28;20506;-74
2024/01/28 12:51:27;;;;;;;12.98;4.50;;;;;;;;;;5010766;28;20030;-76
2024/01/28 12:53:52;;;;;;;15.85;4.25;;;;;;;;;;5010945;28;20029;-75
2024/01/28 12:56:19;;;;;;;8.57;3.88;;;;;;;;;;5010934;28;20497;-74
2024/01/28 12:58:45;;;;;;;10.95;3.65;;;;;;;;;;5010520;28;20453;-75
2024/01/28 13:01:10;;;;;;;15.55;4.85;;;;;;;;;;5010714;28;20133;-74
2024/01/28 13:03:36;;;;;;;10.45;3.65;;;;;;;;;;5012642;28;20026;-75
2024/01/28 13:06:02;;;;;;;10.50;3.90;;;;;;;;;;5010769;28;20536;-75
2024/01/28 13:08:30;;;;;;;13.10;4.28;;;;;;;;;;5012322;28;20034;-74
2024/01/28 13:11:00;;;;;;;11.25;3.83;;;;;;;;;;5018108;28;20531;-75
2024/01/28 13:13:25;;;;;;;11.40;4.30;;;;;;;;;;5032320;28;20033;-75
2024/01/28 13:15:51;;;;;;;11.25;3.40;;;;;;;;;;5031842;28;20128;-74
2024/01/28 13:18:16;;;;;;;11.02;4.50;;;;;;;;;;5030354;28;20044;-73
2024/01/28 13:20:42;;;;;;;9.40;3.85;;;;;;;;;;5031697;28;20040;-74
2024/01/28 13:23:07;;;;;;;17.63;4.15;;;;;;;;;;5031412;28;20021;-74
2024/01/28 13:25:33;;;;;;;10.18;4.03;;;;;;;;;;5031248;28;20450;-73
2024/01/28 13:27:59;;;;;;;12.75;4.15;;;;;;;;;;5030885;28;20106;-76
2024/01/28 13:30:24;;;;;;;12.73;4.60;;;;;;;;;;5030057;28;20060;-75
2024/01/28 13:32:50;;;;;;;9.93;3.85;;;;;;;;;;5030545;28;20497;-73
2024/01/28 13:35:16;;;;;;;15.13;3.80;;;;;;;;;;5032135;28;20034;-74
2024/01/28 13:37:43;;;;;;;9.35;6.43;;;;;;;;;;5031475;28;20080;-75
2024/01/28 13:40:10;;;;;;;11.30;4.63;;;;;;;;;;5029715;28;20034;-75
2024/01/28 13:42:37;;;;;;;10.80;4.22;;;;;;;;;;5031268;28;20119;-75
2024/01/28 13:45:05;;;;;;;14.50;4.03;;;;;;;;;;5030738;28;20080;-75
2024/01/28 13:47:32;;;;;;;10.73;4.50;;;;;;;;;;5032645;28;20037;-75
2024/01/28 13:49:59;;;;;;;7.97;3.45;;;;;;;;;;5029978;28;20037;-74
2024/01/28 13:52:25;;;;;;;12.85;3.90;;;;;;;;;;5030615;28;20043;-75
2024/01/28 13:54:51;;;;;;;9.80;4.72;;;;;;;;;;5031259;28;20469;-75
2024/01/28 13:57:17;;;;;;;12.45;4.55;;;;;;;;;;5013360;28;20511;-75
2024/01/28 13:59:46;;;;;;;14.40;4.47;;;;;;;;;;5029641;28;20044;-76
2024/01/28 14:02:11;;;;;;;8.88;3.80;;;;;;;;;;5029479;28;20047;-75
2024/01/28 14:04:37;;;;;;;11.57;5.20;;;;;;;;;;5030613;28;20128;-75
2024/01/28 14:07:03;;;;;;;16.00;4.05;;;;;;;;;;5030698;28;20037;-76
2024/01/28 14:09:28;;;;;;;17.35;4.18;;;;;;;;;;5030345;28;20039;-75
2024/01/28 14:11:54;;;;;;;10.35;3.38;;;;;;;;;;5029970;28;20433;-72
2024/01/28 14:14:20;;;;;;;10.10;4.13;;;;;;;;;;5030460;28;20299;-73
2024/01/28 14:16:46;;;;;;;13.60;3.97;;;;;;;;;;5011176;28;20036;-72
2024/01/28 14:19:12;;;;;;;10.05;4.00;;;;;;;;;;5028756;28;20029;-75
2024/01/28 14:21:37;;;;;;;12.63;4.72;;;;;;;;;;5032282;28;20454;-75
2024/01/28 14:24:03;;;;;;;7.82;3.47;;;;;;;;;;5030368;28;20060;-74
2024/01/28 14:26:29;;;;;;;10.25;4.13;;;;;;;;;;5030346;28;20021;-73